This is the latest recevied weather packets stored in our database for station/object EA5CBT-13. If no packets are shown the sender has not sent any weather packets the latest 10 day(s).
| Time | Temp. | Humidity | Pressure | Rain* | Wind** | Luminosity | Snow |
|---|---|---|---|---|---|---|---|
| 1777592757 | 18.89° C | 73% | 1014.8 hPa | 0 mm | - | - | - |
| 1777591522 | 18.33° C | 74% | 1014.7 hPa | 0 mm | - | - | - |
| 1777589154 | 18.89° C | 73% | 1015 hPa | 0 mm | - | - | - |
| 1777588547 | 18.89° C | 72% | 1015 hPa | 0 mm | - | - | - |
| 1777584391 | 18.33° C | 75% | 1014.9 hPa | 0 mm | - | - | - |
| 1777583741 | 18.33° C | 76% | 1014.9 hPa | 0 mm | - | - | - |
| 1777581917 | 18.33° C | 77% | 1014.4 hPa | 0 mm | - | - | - |
| 1777578956 | 18.33° C | 74% | 1013.6 hPa | 0 mm | - | - | - |
| 1777575348 | 19.44° C | 72% | 1013 hPa | 0 mm | - | - | - |
| 1777571759 | 21.11° C | 70% | 1012.5 hPa | 0 mm | - | - | - |
| 1777566346 | 22.22° C | 65% | 1012.5 hPa | 0 mm | - | - | - |
| 1777564520 | 22.78° C | 60% | 1012.4 hPa | 0 mm | - | - | - |
| 1777562148 | 23.33° C | 58% | 1012.4 hPa | 0 mm | - | - | - |
| 1777553146 | 23.89° C | 59% | 1013 hPa | 0 mm | - | - | - |
| 1777552539 | 23.89° C | 56% | 1013 hPa | 0 mm | - | - | - |
| 1777551322 | 23.33° C | 57% | 1013.2 hPa | 0 mm | - | - | - |
| 1777550775 | 23.89° C | 57% | 1013.2 hPa | 0 mm | - | - | - |
| 1777547126 | 23.89° C | 59% | 1013.3 hPa | 0 mm | - | - | - |
| 1777546538 | 23.33° C | 59% | 1013.5 hPa | 0 mm | - | - | - |
| 1777543537 | 23.33° C | 60% | 1013.8 hPa | 0 mm | - | - | - |
| 1777541816 | 23.33° C | 60% | 1014 hPa | 0 mm | - | - | - |
| 1777532166 | 20.56° C | 67% | 1013 hPa | 0 mm | - | - | - |
| 1777529735 | 16.11° C | 87% | 1013.1 hPa | 0 mm | - | - | - |
| 1777528518 | 14.44° C | 86% | 1012.7 hPa | 0 mm | - | - | - |
| 1777526754 | 14.44° C | 85% | 1012.4 hPa | 0 mm | - | - | - |
* Rain latest hour (hover to see other rain measurements)
** Current wind speed in m/s (hover to see current wind gust speed)